sensor_id;sensor_type;location;lat;lon;timestamp;temperature;humidity
5429;DHT22;2737;52.386;9.980;2023-06-14T00:02:04;16.50;99.30
5429;DHT22;2737;52.386;9.980;2023-06-14T00:04:34;16.50;99.60
5429;DHT22;2737;52.386;9.980;2023-06-14T00:07:02;16.40;99.90
5429;DHT22;2737;52.386;9.980;2023-06-14T00:09:29;16.40;99.90
5429;DHT22;2737;52.386;9.980;2023-06-14T00:11:56;16.40;99.90
5429;DHT22;2737;52.386;9.980;2023-06-14T00:14:24;16.30;99.90
5429;DHT22;2737;52.386;9.980;2023-06-14T00:16:51;16.20;99.90
5429;DHT22;2737;52.386;9.980;2023-06-14T00:19:24;16.10;99.90
5429;DHT22;2737;52.386;9.980;2023-06-14T00:21:51;16.10;99.90
5429;DHT22;2737;52.386;9.980;2023-06-14T00:24:19;16.10;99.90
5429;DHT22;2737;52.386;9.980;2023-06-14T00:26:46;16.10;99.90
5429;DHT22;2737;52.386;9.980;2023-06-14T00:29:13;16.00;99.90
5429;DHT22;2737;52.386;9.980;2023-06-14T00:31:42;15.90;99.90
5429;DHT22;2737;52.386;9.980;2023-06-14T00:34:09;15.90;99.90
5429;DHT22;2737;52.386;9.980;2023-06-14T00:36:35;15.90;99.90
5429;DHT22;2737;52.386;9.980;2023-06-14T00:39:03;15.90;99.90
5429;DHT22;2737;52.386;9.980;2023-06-14T00:41:30;15.80;99.90
5429;DHT22;2737;52.386;9.980;2023-06-14T00:43:57;15.80;99.90
5429;DHT22;2737;52.386;9.980;2023-06-14T00:46:25;15.70;99.90
5429;DHT22;2737;52.386;9.980;2023-06-14T00:48:54;15.70;99.90
5429;DHT22;2737;52.386;9.980;2023-06-14T00:51:22;15.70;99.90
5429;DHT22;2737;52.386;9.980;2023-06-14T00:53:49;15.60;99.90
5429;DHT22;2737;52.386;9.980;2023-06-14T00:56:16;15.60;99.90
5429;DHT22;2737;52.386;9.980;2023-06-14T00:58:46;15.60;99.90
5429;DHT22;2737;52.386;9.980;2023-06-14T01:01:13;15.60;99.90
5429;DHT22;2737;52.386;9.980;2023-06-14T01:03:40;15.50;99.90
5429;DHT22;2737;52.386;9.980;2023-06-14T01:06:19;15.50;99.90
5429;DHT22;2737;52.386;9.980;2023-06-14T01:09:01;15.50;99.90
5429;DHT22;2737;52.386;9.980;2023-06-14T01:11:35;15.40;99.90
5429;DHT22;2737;52.386;9.980;2023-06-14T01:14:05;15.40;99.90
5429;DHT22;2737;52.386;9.980;2023-06-14T01:16:34;15.40;99.90
5429;DHT22;2737;52.386;9.980;2023-06-14T01:19:02;15.40;99.90
5429;DHT22;2737;52.386;9.980;2023-06-14T01:21:30;15.40;99.90
5429;DHT22;2737;52.386;9.980;2023-06-14T01:24:04;15.40;99.90
5429;DHT22;2737;52.386;9.980;2023-06-14T01:26:31;15.40;99.90
5429;DHT22;2737;52.386;9.980;2023-06-14T01:28:58;15.30;99.90
5429;DHT22;2737;52.386;9.980;2023-06-14T01:31:26;15.30;99.90
5429;DHT22;2737;52.386;9.980;2023-06-14T01:33:55;15.40;99.90
5429;DHT22;2737;52.386;9.980;2023-06-14T01:36:23;15.20;99.90
5429;DHT22;2737;52.386;9.980;2023-06-14T01:38:53;15.20;99.90
5429;DHT22;2737;52.386;9.980;2023-06-14T01:41:23;15.10;99.90
5429;DHT22;2737;52.386;9.980;2023-06-14T01:43:52;15.10;99.90
5429;DHT22;2737;52.386;9.980;2023-06-14T01:46:19;15.00;99.90
5429;DHT22;2737;52.386;9.980;2023-06-14T01:48:47;15.00;99.90
5429;DHT22;2737;52.386;9.980;2023-06-14T01:51:14;15.00;99.90
5429;DHT22;2737;52.386;9.980;2023-06-14T01:53:41;14.90;99.90
5429;DHT22;2737;52.386;9.980;2023-06-14T01:56:08;14.90;99.90
5429;DHT22;2737;52.386;9.980;2023-06-14T01:58:36;14.90;99.90
5429;DHT22;2737;52.386;9.980;2023-06-14T02:01:05;14.90;99.90
5429;DHT22;2737;52.386;9.980;2023-06-14T02:03:32;14.90;99.90
5429;DHT22;2737;52.386;9.980;2023-06-14T02:06:00;14.80;99.90
5429;DHT22;2737;52.386;9.980;2023-06-14T02:08:27;14.80;99.90
5429;DHT22;2737;52.386;9.980;2023-06-14T02:10:54;14.80;99.90
5429;DHT22;2737;52.386;9.980;2023-06-14T02:13:21;14.80;99.90
5429;DHT22;2737;52.386;9.980;2023-06-14T02:15:49;14.80;99.90
5429;DHT22;2737;52.386;9.980;2023-06-14T02:18:20;14.80;99.90
5429;DHT22;2737;52.386;9.980;2023-06-14T02:20:47;14.70;99.90
5429;DHT22;2737;52.386;9.980;2023-06-14T02:23:14;14.70;99.90
5429;DHT22;2737;52.386;9.980;2023-06-14T02:25:41;14.60;99.90
5429;DHT22;2737;52.386;9.980;2023-06-14T02:28:10;14.60;99.90
5429;DHT22;2737;52.386;9.980;2023-06-14T02:30:37;14.60;99.90
5429;DHT22;2737;52.386;9.980;2023-06-14T02:33:05;14.60;99.90
5429;DHT22;2737;52.386;9.980;2023-06-14T02:35:33;14.60;99.90
5429;DHT22;2737;52.386;9.980;2023-06-14T02:38:00;14.60;99.90
5429;DHT22;2737;52.386;9.980;2023-06-14T02:40:27;14.50;99.90
5429;DHT22;2737;52.386;9.980;2023-06-14T02:42:54;14.50;99.90
5429;DHT22;2737;52.386;9.980;2023-06-14T02:45:21;14.40;99.90
5429;DHT22;2737;52.386;9.980;2023-06-14T02:47:48;14.40;99.90
5429;DHT22;2737;52.386;9.980;2023-06-14T02:50:17;14.30;99.90
5429;DHT22;2737;52.386;9.980;2023-06-14T02:52:44;14.20;99.90
5429;DHT22;2737;52.386;9.980;2023-06-14T02:55:11;14.30;99.90
5429;DHT22;2737;52.386;9.980;2023-06-14T02:57:38;14.30;99.90
5429;DHT22;2737;52.386;9.980;2023-06-14T03:00:06;14.30;99.90
5429;DHT22;2737;52.386;9.980;2023-06-14T03:02:35;14.20;99.90
5429;DHT22;2737;52.386;9.980;2023-06-14T03:05:02;14.20;99.90
5429;DHT22;2737;52.386;9.980;2023-06-14T03:07:31;14.20;99.90
5429;DHT22;2737;52.386;9.980;2023-06-14T03:09:59;14.20;99.90
5429;DHT22;2737;52.386;9.980;2023-06-14T03:12:26;14.20;99.90
5429;DHT22;2737;52.386;9.980;2023-06-14T03:14:53;14.10;99.90
5429;DHT22;2737;52.386;9.980;2023-06-14T03:17:22;14.00;99.90
5429;DHT22;2737;52.386;9.980;2023-06-14T03:19:49;14.00;99.90
5429;DHT22;2737;52.386;9.980;2023-06-14T03:22:16;14.00;99.90
5429;DHT22;2737;52.386;9.980;2023-06-14T03:24:45;14.00;99.90
5429;DHT22;2737;52.386;9.980;2023-06-14T03:27:12;14.00;99.90
5429;DHT22;2737;52.386;9.980;2023-06-14T03:29:40;14.00;99.90
5429;DHT22;2737;52.386;9.980;2023-06-14T03:32:07;14.00;99.90
5429;DHT22;2737;52.386;9.980;2023-06-14T03:34:35;14.00;99.90
5429;DHT22;2737;52.386;9.980;2023-06-14T03:37:04;14.00;99.90
5429;DHT22;2737;52.386;9.980;2023-06-14T03:39:31;14.00;99.90
5429;DHT22;2737;52.386;9.980;2023-06-14T03:42:00;14.00;99.90
5429;DHT22;2737;52.386;9.980;2023-06-14T03:44:27;14.00;99.90
5429;DHT22;2737;52.386;9.980;2023-06-14T03:46:54;14.00;99.90
5429;DHT22;2737;52.386;9.980;2023-06-14T03:49:21;14.00;99.90
5429;DHT22;2737;52.386;9.980;2023-06-14T03:51:48;14.00;99.90
5429;DHT22;2737;52.386;9.980;2023-06-14T03:54:16;14.00;99.90
5429;DHT22;2737;52.386;9.980;2023-06-14T03:56:43;14.00;99.90
5429;DHT22;2737;52.386;9.980;2023-06-14T03:59:12;14.00;99.90
5429;DHT22;2737;52.386;9.980;2023-06-14T04:01:39;14.00;99.90
5429;DHT22;2737;52.386;9.980;2023-06-14T04:04:12;14.00;99.90
5429;DHT22;2737;52.386;9.980;2023-06-14T04:06:39;14.00;99.90
5429;DHT22;2737;52.386;9.980;2023-06-14T04:09:07;14.00;99.90
5429;DHT22;2737;52.386;9.980;2023-06-14T04:11:34;14.10;99.90
5429;DHT22;2737;52.386;9.980;2023-06-14T04:14:02;14.10;99.90
5429;DHT22;2737;52.386;9.980;2023-06-14T04:16:30;14.10;99.90
5429;DHT22;2737;52.386;9.980;2023-06-14T04:18:57;14.20;99.90
5429;DHT22;2737;52.386;9.980;2023-06-14T04:21:24;14.20;99.90
5429;DHT22;2737;52.386;9.980;2023-06-14T04:23:53;14.60;99.90
5429;DHT22;2737;52.386;9.980;2023-06-14T04:26:22;14.30;99.90
5429;DHT22;2737;52.386;9.980;2023-06-14T04:28:55;14.30;99.90
5429;DHT22;2737;52.386;9.980;2023-06-14T04:31:28;14.40;99.90
5429;DHT22;2737;52.386;9.980;2023-06-14T04:33:56;14.40;99.90
5429;DHT22;2737;52.386;9.980;2023-06-14T04:36:24;14.40;99.90
5429;DHT22;2737;52.386;9.980;2023-06-14T04:38:53;14.50;99.90
5429;DHT22;2737;52.386;9.980;2023-06-14T04:41:20;14.50;99.90
5429;DHT22;2737;52.386;9.980;2023-06-14T04:43:48;14.60;99.90
5429;DHT22;2737;52.386;9.980;2023-06-14T04:46:15;14.60;99.90
5429;DHT22;2737;52.386;9.980;2023-06-14T04:48:42;14.70;99.90
5429;DHT22;2737;52.386;9.980;2023-06-14T04:51:12;14.80;99.90
5429;DHT22;2737;52.386;9.980;2023-06-14T04:53:41;14.80;99.90
5429;DHT22;2737;52.386;9.980;2023-06-14T04:56:08;14.90;99.90
5429;DHT22;2737;52.386;9.980;2023-06-14T04:58:35;14.90;99.90
5429;DHT22;2737;52.386;9.980;2023-06-14T05:01:04;14.90;99.90
5429;DHT22;2737;52.386;9.980;2023-06-14T05:03:31;15.10;99.90
5429;DHT22;2737;52.386;9.980;2023-06-14T05:06:00;15.20;99.90
5429;DHT22;2737;52.386;9.980;2023-06-14T05:08:28;15.30;99.90
5429;DHT22;2737;52.386;9.980;2023-06-14T05:10:55;15.40;99.90
5429;DHT22;2737;52.386;9.980;2023-06-14T05:13:22;15.40;99.90
5429;DHT22;2737;52.386;9.980;2023-06-14T05:15:49;15.60;99.90
5429;DHT22;2737;52.386;9.980;2023-06-14T05:18:16;15.60;99.90
5429;DHT22;2737;52.386;9.980;2023-06-14T05:20:43;15.70;99.90
5429;DHT22;2737;52.386;9.980;2023-06-14T05:23:11;15.80;99.90
5429;DHT22;2737;52.386;9.980;2023-06-14T05:25:42;15.80;99.90
5429;DHT22;2737;52.386;9.980;2023-06-14T05:28:09;15.90;99.90
5429;DHT22;2737;52.386;9.980;2023-06-14T05:30:38;16.00;99.90
5429;DHT22;2737;52.386;9.980;2023-06-14T05:33:05;16.10;99.90
5429;DHT22;2737;52.386;9.980;2023-06-14T05:35:32;16.10;99.90
5429;DHT22;2737;52.386;9.980;2023-06-14T05:37:59;16.20;99.90
5429;DHT22;2737;52.386;9.980;2023-06-14T05:40:26;16.30;99.90
5429;DHT22;2737;52.386;9.980;2023-06-14T05:42:55;16.40;99.90
5429;DHT22;2737;52.386;9.980;2023-06-14T05:45:22;16.50;99.90
5429;DHT22;2737;52.386;9.980;2023-06-14T05:47:49;16.60;99.90
5429;DHT22;2737;52.386;9.980;2023-06-14T05:50:16;16.70;99.90
5429;DHT22;2737;52.386;9.980;2023-06-14T05:52:43;16.70;99.90
5429;DHT22;2737;52.386;9.980;2023-06-14T05:55:10;16.80;99.90
5429;DHT22;2737;52.386;9.980;2023-06-14T05:57:38;16.90;99.90
5429;DHT22;2737;52.386;9.980;2023-06-14T06:00:08;16.90;99.90
5429;DHT22;2737;52.386;9.980;2023-06-14T06:02:37;16.90;99.90
5429;DHT22;2737;52.386;9.980;2023-06-14T06:05:05;17.10;99.90
5429;DHT22;2737;52.386;9.980;2023-06-14T06:07:32;17.30;99.90
5429;DHT22;2737;52.386;9.980;2023-06-14T06:09:59;17.50;99.90
5429;DHT22;2737;52.386;9.980;2023-06-14T06:12:26;17.50;99.90
5429;DHT22;2737;52.386;9.980;2023-06-14T06:14:53;17.50;99.90
5429;DHT22;2737;52.386;9.980;2023-06-14T06:17:22;17.50;99.90
5429;DHT22;2737;52.386;9.980;2023-06-14T06:19:49;17.70;99.90
5429;DHT22;2737;52.386;9.980;2023-06-14T06:22:16;17.70;99.90
5429;DHT22;2737;52.386;9.980;2023-06-14T06:24:43;17.80;99.90
5429;DHT22;2737;52.386;9.980;2023-06-14T06:27:10;17.90;99.90
5429;DHT22;2737;52.386;9.980;2023-06-14T06:29:38;18.10;99.90
5429;DHT22;2737;52.386;9.980;2023-06-14T06:32:06;18.20;99.90
5429;DHT22;2737;52.386;9.980;2023-06-14T06:34:34;18.20;99.90
5429;DHT22;2737;52.386;9.980;2023-06-14T06:37:03;18.20;99.90
5429;DHT22;2737;52.386;9.980;2023-06-14T06:39:30;18.30;99.90
5429;DHT22;2737;52.386;9.980;2023-06-14T06:41:57;18.40;99.90
5429;DHT22;2737;52.386;9.980;2023-06-14T06:44:24;18.50;99.90
5429;DHT22;2737;52.386;9.980;2023-06-14T06:46:51;18.70;99.90
5429;DHT22;2737;52.386;9.980;2023-06-14T06:49:18;18.90;99.90
5429;DHT22;2737;52.386;9.980;2023-06-14T06:51:59;18.90;99.90
5429;DHT22;2737;52.386;9.980;2023-06-14T06:54:27;18.90;99.90
5429;DHT22;2737;52.386;9.980;2023-06-14T06:56:54;18.90;99.90
5429;DHT22;2737;52.386;9.980;2023-06-14T06:59:21;19.00;99.90
5429;DHT22;2737;52.386;9.980;2023-06-14T07:01:48;19.10;99.90
5429;DHT22;2737;52.386;9.980;2023-06-14T07:04:15;19.40;99.90
5429;DHT22;2737;52.386;9.980;2023-06-14T07:06:42;19.40;99.90
5429;DHT22;2737;52.386;9.980;2023-06-14T07:09:11;19.60;99.90
5429;DHT22;2737;52.386;9.980;2023-06-14T07:11:40;19.70;99.90
5429;DHT22;2737;52.386;9.980;2023-06-14T07:14:07;19.70;99.90
5429;DHT22;2737;52.386;9.980;2023-06-14T07:16:34;19.50;99.90
5429;DHT22;2737;52.386;9.980;2023-06-14T07:19:02;19.50;99.90
5429;DHT22;2737;52.386;9.980;2023-06-14T07:21:29;19.60;99.90
5429;DHT22;2737;52.386;9.980;2023-06-14T07:23:56;19.60;99.90
5429;DHT22;2737;52.386;9.980;2023-06-14T07:26:24;19.80;99.90
5429;DHT22;2737;52.386;9.980;2023-06-14T07:28:51;19.90;99.90
5429;DHT22;2737;52.386;9.980;2023-06-14T07:31:19;20.20;99.90
5429;DHT22;2737;52.386;9.980;2023-06-14T07:33:46;20.50;99.90
5429;DHT22;2737;52.386;9.980;2023-06-14T07:36:13;20.60;99.90
5429;DHT22;2737;52.386;9.980;2023-06-14T07:38:41;20.30;99.90
5429;DHT22;2737;52.386;9.980;2023-06-14T07:41:08;20.30;99.90
5429;DHT22;2737;52.386;9.980;2023-06-14T07:43:36;20.20;99.90
5429;DHT22;2737;52.386;9.980;2023-06-14T07:46:03;20.00;99.90
5429;DHT22;2737;52.386;9.980;2023-06-14T07:48:30;19.80;99.90
5429;DHT22;2737;52.386;9.980;2023-06-14T07:50:57;19.70;99.90
5429;DHT22;2737;52.386;9.980;2023-06-14T07:53:30;19.70;99.90
5429;DHT22;2737;52.386;9.980;2023-06-14T07:55:58;19.60;99.90
5429;DHT22;2737;52.386;9.980;2023-06-14T07:58:25;19.90;99.90
5429;DHT22;2737;52.386;9.980;2023-06-14T08:00:54;20.20;99.90
5429;DHT22;2737;52.386;9.980;2023-06-14T08:03:21;20.20;99.90
5429;DHT22;2737;52.386;9.980;2023-06-14T08:05:49;20.30;99.30
5429;DHT22;2737;52.386;9.980;2023-06-14T08:08:17;20.50;99.60
5429;DHT22;2737;52.386;9.980;2023-06-14T08:10:45;20.70;99.30
5429;DHT22;2737;52.386;9.980;2023-06-14T08:13:13;20.80;98.80
5429;DHT22;2737;52.386;9.980;2023-06-14T08:15:40;20.70;98.70
5429;DHT22;2737;52.386;9.980;2023-06-14T08:18:08;20.70;98.80
5429;DHT22;2737;52.386;9.980;2023-06-14T08:20:35;20.90;99.00
5429;DHT22;2737;52.386;9.980;2023-06-14T08:23:03;21.10;98.90
5429;DHT22;2737;52.386;9.980;2023-06-14T08:25:30;21.30;98.70
5429;DHT22;2737;52.386;9.980;2023-06-14T08:27:58;21.40;98.30
5429;DHT22;2737;52.386;9.980;2023-06-14T08:30:25;21.50;98.40
5429;DHT22;2737;52.386;9.980;2023-06-14T08:32:53;21.40;97.30
5429;DHT22;2737;52.386;9.980;2023-06-14T08:35:23;21.30;97.10
5429;DHT22;2737;52.386;9.980;2023-06-14T08:37:50;21.40;96.60
5429;DHT22;2737;52.386;9.980;2023-06-14T08:40:22;21.30;96.40
5429;DHT22;2737;52.386;9.980;2023-06-14T08:42:51;21.20;96.60
5429;DHT22;2737;52.386;9.980;2023-06-14T08:45:19;21.40;96.70
5429;DHT22;2737;52.386;9.980;2023-06-14T08:47:47;21.30;97.10
5429;DHT22;2737;52.386;9.980;2023-06-14T08:50:20;21.20;97.50
5429;DHT22;2737;52.386;9.980;2023-06-14T08:52:51;21.00;96.70
5429;DHT22;2737;52.386;9.980;2023-06-14T08:55:19;21.10;97.00
5429;DHT22;2737;52.386;9.980;2023-06-14T08:57:47;21.10;96.70
5429;DHT22;2737;52.386;9.980;2023-06-14T09:00:15;21.30;97.00
5429;DHT22;2737;52.386;9.980;2023-06-14T09:02:43;21.30;96.90
5429;DHT22;2737;52.386;9.980;2023-06-14T09:05:10;21.40;97.10
5429;DHT22;2737;52.386;9.980;2023-06-14T09:07:39;21.50;96.80
5429;DHT22;2737;52.386;9.980;2023-06-14T09:10:11;21.60;96.90
5429;DHT22;2737;52.386;9.980;2023-06-14T09:12:38;21.80;96.70
5429;DHT22;2737;52.386;9.980;2023-06-14T09:15:07;21.80;95.70
5429;DHT22;2737;52.386;9.980;2023-06-14T09:17:35;21.80;96.50
5429;DHT22;2737;52.386;9.980;2023-06-14T09:20:02;21.90;95.90
5429;DHT22;2737;52.386;9.980;2023-06-14T09:22:35;21.80;95.40
5429;DHT22;2737;52.386;9.980;2023-06-14T09:25:02;21.80;95.70
5429;DHT22;2737;52.386;9.980;2023-06-14T09:27:32;22.00;95.80
5429;DHT22;2737;52.386;9.980;2023-06-14T09:29:59;21.90;95.70
5429;DHT22;2737;52.386;9.980;2023-06-14T09:32:26;22.00;95.30
5429;DHT22;2737;52.386;9.980;2023-06-14T09:34:54;22.00;95.30
5429;DHT22;2737;52.386;9.980;2023-06-14T09:37:28;22.00;95.50
5429;DHT22;2737;52.386;9.980;2023-06-14T09:39:57;22.10;95.50
5429;DHT22;2737;52.386;9.980;2023-06-14T09:42:24;22.10;95.00
5429;DHT22;2737;52.386;9.980;2023-06-14T09:44:55;22.00;95.20
5429;DHT22;2737;52.386;9.980;2023-06-14T09:47:23;22.20;94.60
5429;DHT22;2737;52.386;9.980;2023-06-14T09:49:51;22.10;95.20
5429;DHT22;2737;52.386;9.980;2023-06-14T09:52:21;22.10;95.20
5429;DHT22;2737;52.386;9.980;2023-06-14T09:54:48;22.40;95.20
5429;DHT22;2737;52.386;9.980;2023-06-14T09:57:17;22.50;95.00
5429;DHT22;2737;52.386;9.980;2023-06-14T09:59:47;22.30;95.30
5429;DHT22;2737;52.386;9.980;2023-06-14T10:02:22;22.40;95.30
5429;DHT22;2737;52.386;9.980;2023-06-14T10:04:57;22.40;95.60
5429;DHT22;2737;52.386;9.980;2023-06-14T10:07:27;22.40;95.50
5429;DHT22;2737;52.386;9.980;2023-06-14T10:09:57;22.50;95.30
5429;DHT22;2737;52.386;9.980;2023-06-14T10:12:25;22.70;95.00
5429;DHT22;2737;52.386;9.980;2023-06-14T10:14:53;22.70;95.00
5429;DHT22;2737;52.386;9.980;2023-06-14T10:17:27;22.60;95.50
5429;DHT22;2737;52.386;9.980;2023-06-14T10:20:07;22.90;95.10
5429;DHT22;2737;52.386;9.980;2023-06-14T10:22:43;22.90;95.00
5429;DHT22;2737;52.386;9.980;2023-06-14T10:25:13;23.00;94.90
5429;DHT22;2737;52.386;9.980;2023-06-14T10:27:52;23.10;95.10
5429;DHT22;2737;52.386;9.980;2023-06-14T10:30:25;23.50;94.90
5429;DHT22;2737;52.386;9.980;2023-06-14T10:33:07;23.50;94.30
5429;DHT22;2737;52.386;9.980;2023-06-14T10:35:35;23.30;93.80
5429;DHT22;2737;52.386;9.980;2023-06-14T10:38:09;23.20;94.00
5429;DHT22;2737;52.386;9.980;2023-06-14T10:40:36;23.20;94.00
5429;DHT22;2737;52.386;9.980;2023-06-14T10:43:21;23.30;94.30
5429;DHT22;2737;52.386;9.980;2023-06-14T10:46:14;23.10;93.60
5429;DHT22;2737;52.386;9.980;2023-06-14T10:48:43;22.90;93.70
5429;DHT22;2737;52.386;9.980;2023-06-14T10:51:18;22.80;94.20
5429;DHT22;2737;52.386;9.980;2023-06-14T10:53:48;22.90;93.90
5429;DHT22;2737;52.386;9.980;2023-06-14T10:56:27;22.90;93.50
5429;DHT22;2737;52.386;9.980;2023-06-14T10:58:55;22.80;94.00
5429;DHT22;2737;52.386;9.980;2023-06-14T11:01:32;22.90;94.10
5429;DHT22;2737;52.386;9.980;2023-06-14T11:04:08;23.00;93.90
5429;DHT22;2737;52.386;9.980;2023-06-14T11:06:46;22.90;94.10
5429;DHT22;2737;52.386;9.980;2023-06-14T11:09:46;22.80;94.00
5429;DHT22;2737;52.386;9.980;2023-06-14T11:12:18;22.80;94.20
5429;DHT22;2737;52.386;9.980;2023-06-14T11:14:46;22.90;94.00
5429;DHT22;2737;52.386;9.980;2023-06-14T11:17:13;22.90;93.90
5429;DHT22;2737;52.386;9.980;2023-06-14T11:19:42;22.80;94.00
5429;DHT22;2737;52.386;9.980;2023-06-14T11:22:09;22.90;94.10
5429;DHT22;2737;52.386;9.980;2023-06-14T11:24:36;23.00;94.10
5429;DHT22;2737;52.386;9.980;2023-06-14T11:27:03;23.00;94.10
5429;DHT22;2737;52.386;9.980;2023-06-14T11:29:31;22.90;94.00
5429;DHT22;2737;52.386;9.980;2023-06-14T11:31:58;23.00;94.30
5429;DHT22;2737;52.386;9.980;2023-06-14T11:34:25;23.10;94.20
5429;DHT22;2737;52.386;9.980;2023-06-14T11:36:54;23.00;94.00
5429;DHT22;2737;52.386;9.980;2023-06-14T11:39:25;22.90;94.50
5429;DHT22;2737;52.386;9.980;2023-06-14T11:41:53;23.00;94.60
5429;DHT22;2737;52.386;9.980;2023-06-14T11:44:21;23.10;94.50
5429;DHT22;2737;52.386;9.980;2023-06-14T11:46:48;23.20;94.60
5429;DHT22;2737;52.386;9.980;2023-06-14T11:49:16;23.00;94.60
5429;DHT22;2737;52.386;9.980;2023-06-14T11:51:43;22.90;94.60
5429;DHT22;2737;52.386;9.980;2023-06-14T11:54:12;22.80;94.90
5429;DHT22;2737;52.386;9.980;2023-06-14T11:56:39;22.80;95.10
5429;DHT22;2737;52.386;9.980;2023-06-14T11:59:06;22.90;95.10
5429;DHT22;2737;52.386;9.980;2023-06-14T12:01:36;22.90;94.90
5429;DHT22;2737;52.386;9.980;2023-06-14T12:04:04;22.90;94.50
5429;DHT22;2737;52.386;9.980;2023-06-14T12:06:31;23.10;94.80
5429;DHT22;2737;52.386;9.980;2023-06-14T12:09:04;23.50;94.60
5429;DHT22;2737;52.386;9.980;2023-06-14T12:11:35;23.50;94.30
5429;DHT22;2737;52.386;9.980;2023-06-14T12:14:03;23.40;94.40
5429;DHT22;2737;52.386;9.980;2023-06-14T12:16:31;23.40;94.40
5429;DHT22;2737;52.386;9.980;2023-06-14T12:19:00;23.40;94.70
5429;DHT22;2737;52.386;9.980;2023-06-14T12:21:28;23.60;94.50
5429;DHT22;2737;52.386;9.980;2023-06-14T12:23:55;23.50;94.50
5429;DHT22;2737;52.386;9.980;2023-06-14T12:26:25;23.50;94.90
5429;DHT22;2737;52.386;9.980;2023-06-14T12:28:54;23.60;94.70
5429;DHT22;2737;52.386;9.980;2023-06-14T12:31:21;23.50;94.40
5429;DHT22;2737;52.386;9.980;2023-06-14T12:33:49;23.60;94.50
5429;DHT22;2737;52.386;9.980;2023-06-14T12:36:17;23.40;94.00
5429;DHT22;2737;52.386;9.980;2023-06-14T12:38:44;23.30;94.20
5429;DHT22;2737;52.386;9.980;2023-06-14T12:41:11;23.30;93.40
5429;DHT22;2737;52.386;9.980;2023-06-14T12:43:40;23.20;93.70
5429;DHT22;2737;52.386;9.980;2023-06-14T12:46:08;23.30;93.80
5429;DHT22;2737;52.386;9.980;2023-06-14T12:48:35;23.50;93.90
5429;DHT22;2737;52.386;9.980;2023-06-14T12:51:02;23.70;93.00
5429;DHT22;2737;52.386;9.980;2023-06-14T12:53:29;23.90;93.20
5429;DHT22;2737;52.386;9.980;2023-06-14T12:55:56;23.80;93.10
5429;DHT22;2737;52.386;9.980;2023-06-14T12:58:23;24.00;93.50
5429;DHT22;2737;52.386;9.980;2023-06-14T13:00:51;23.90;93.00
5429;DHT22;2737;52.386;9.980;2023-06-14T13:03:19;24.10;93.10
5429;DHT22;2737;52.386;9.980;2023-06-14T13:05:46;24.30;93.00
5429;DHT22;2737;52.386;9.980;2023-06-14T13:08:13;24.40;92.80
5429;DHT22;2737;52.386;9.980;2023-06-14T13:10:40;24.40;92.70
5429;DHT22;2737;52.386;9.980;2023-06-14T13:13:07;24.20;92.70
5429;DHT22;2737;52.386;9.980;2023-06-14T13:15:34;24.20;92.60
5429;DHT22;2737;52.386;9.980;2023-06-14T13:18:01;24.10;92.80
5429;DHT22;2737;52.386;9.980;2023-06-14T13:20:30;24.10;93.10
5429;DHT22;2737;52.386;9.980;2023-06-14T13:22:57;24.00;92.80
5429;DHT22;2737;52.386;9.980;2023-06-14T13:25:24;23.90;93.10
5429;DHT22;2737;52.386;9.980;2023-06-14T13:27:51;23.70;93.50
5429;DHT22;2737;52.386;9.980;2023-06-14T13:30:18;23.70;93.40
5429;DHT22;2737;52.386;9.980;2023-06-14T13:32:45;23.70;93.30
5429;DHT22;2737;52.386;9.980;2023-06-14T13:35:12;23.50;93.20
5429;DHT22;2737;52.386;9.980;2023-06-14T13:37:40;23.50;92.90
5429;DHT22;2737;52.386;9.980;2023-06-14T13:40:08;23.20;93.00
5429;DHT22;2737;52.386;9.980;2023-06-14T13:42:35;23.30;93.30
5429;DHT22;2737;52.386;9.980;2023-06-14T13:45:02;23.30;93.10
5429;DHT22;2737;52.386;9.980;2023-06-14T13:47:29;23.20;93.10
5429;DHT22;2737;52.386;9.980;2023-06-14T13:49:56;23.20;93.20
5429;DHT22;2737;52.386;9.980;2023-06-14T13:52:24;23.10;93.40
5429;DHT22;2737;52.386;9.980;2023-06-14T13:54:53;23.20;93.40
5429;DHT22;2737;52.386;9.980;2023-06-14T13:57:20;23.30;93.20
5429;DHT22;2737;52.386;9.980;2023-06-14T13:59:47;23.40;93.20
5429;DHT22;2737;52.386;9.980;2023-06-14T14:02:15;23.50;93.00
5429;DHT22;2737;52.386;9.980;2023-06-14T14:04:42;23.70;92.90
5429;DHT22;2737;52.386;9.980;2023-06-14T14:07:09;23.80;92.40
5429;DHT22;2737;52.386;9.980;2023-06-14T14:09:36;23.90;92.60
5429;DHT22;2737;52.386;9.980;2023-06-14T14:12:07;23.90;92.00
5429;DHT22;2737;52.386;9.980;2023-06-14T14:14:34;23.90;91.60
5429;DHT22;2737;52.386;9.980;2023-06-14T14:17:01;23.80;91.50
5429;DHT22;2737;52.386;9.980;2023-06-14T14:19:28;23.90;91.70
5429;DHT22;2737;52.386;9.980;2023-06-14T14:21:55;24.10;91.80
5429;DHT22;2737;52.386;9.980;2023-06-14T14:24:22;24.20;91.70
5429;DHT22;2737;52.386;9.980;2023-06-14T14:26:49;24.40;91.70
5429;DHT22;2737;52.386;9.980;2023-06-14T14:29:20;24.60;91.40
5429;DHT22;2737;52.386;9.980;2023-06-14T14:31:48;24.40;91.20
5429;DHT22;2737;52.386;9.980;2023-06-14T14:34:15;24.10;91.20
5429;DHT22;2737;52.386;9.980;2023-06-14T14:36:42;23.90;91.30
5429;DHT22;2737;52.386;9.980;2023-06-14T14:39:09;23.70;91.40
5429;DHT22;2737;52.386;9.980;2023-06-14T14:41:37;23.60;91.50
5429;DHT22;2737;52.386;9.980;2023-06-14T14:44:06;23.50;91.70
5429;DHT22;2737;52.386;9.980;2023-06-14T14:46:34;23.60;91.80
5429;DHT22;2737;52.386;9.980;2023-06-14T14:49:02;23.60;91.90
5429;DHT22;2737;52.386;9.980;2023-06-14T14:51:29;23.60;91.70
5429;DHT22;2737;52.386;9.980;2023-06-14T14:53:57;23.70;91.90
5429;DHT22;2737;52.386;9.980;2023-06-14T14:56:24;23.80;92.20
5429;DHT22;2737;52.386;9.980;2023-06-14T14:58:51;23.80;91.70
5429;DHT22;2737;52.386;9.980;2023-06-14T15:01:18;23.80;91.60
5429;DHT22;2737;52.386;9.980;2023-06-14T15:03:47;24.00;91.80
5429;DHT22;2737;52.386;9.980;2023-06-14T15:06:14;23.90;91.50
5429;DHT22;2737;52.386;9.980;2023-06-14T15:08:43;23.80;91.40
5429;DHT22;2737;52.386;9.980;2023-06-14T15:11:10;23.80;91.60
5429;DHT22;2737;52.386;9.980;2023-06-14T15:13:37;23.60;91.40
5429;DHT22;2737;52.386;9.980;2023-06-14T15:16:04;23.60;91.50
5429;DHT22;2737;52.386;9.980;2023-06-14T15:18:31;23.60;91.20
5429;DHT22;2737;52.386;9.980;2023-06-14T15:21:00;23.70;91.40
5429;DHT22;2737;52.386;9.980;2023-06-14T15:23:27;23.90;91.40
5429;DHT22;2737;52.386;9.980;2023-06-14T15:25:54;24.10;91.20
5429;DHT22;2737;52.386;9.980;2023-06-14T15:28:21;24.40;92.10
5429;DHT22;2737;52.386;9.980;2023-06-14T15:30:50;24.40;90.50
5429;DHT22;2737;52.386;9.980;2023-06-14T15:33:17;24.40;91.10
5429;DHT22;2737;52.386;9.980;2023-06-14T15:35:44;24.30;90.50
5429;DHT22;2737;52.386;9.980;2023-06-14T15:38:12;24.00;90.90
5429;DHT22;2737;52.386;9.980;2023-06-14T15:40:39;24.00;91.00
5429;DHT22;2737;52.386;9.980;2023-06-14T15:43:06;23.90;90.70
5429;DHT22;2737;52.386;9.980;2023-06-14T15:45:33;23.80;90.70
5429;DHT22;2737;52.386;9.980;2023-06-14T15:48:00;23.70;90.80
5429;DHT22;2737;52.386;9.980;2023-06-14T15:50:27;23.60;90.70
5429;DHT22;2737;52.386;9.980;2023-06-14T15:52:54;23.60;90.70
5429;DHT22;2737;52.386;9.980;2023-06-14T15:55:22;23.50;90.80
5429;DHT22;2737;52.386;9.980;2023-06-14T15:57:49;23.50;90.60
5429;DHT22;2737;52.386;9.980;2023-06-14T16:00:17;23.40;90.40
5429;DHT22;2737;52.386;9.980;2023-06-14T16:02:45;23.40;90.40
5429;DHT22;2737;52.386;9.980;2023-06-14T16:05:12;23.30;90.60
5429;DHT22;2737;52.386;9.980;2023-06-14T16:07:40;23.30;90.50
5429;DHT22;2737;52.386;9.980;2023-06-14T16:10:07;23.30;90.90